Toyotsu Maru — JD2431 — position and weather

sailwx.info

Track history (hours):
 
Tides and Currents Weather Stations Pressure Air Temp Water Temp Dewpoint Dewpoint Depression Visibility Wind Speed Wind Dir Waves Ship Positions

Toyotsu Maru

Last reported at 2017-Nov-19 13:34 UTC. Time now 2017-Nov-20 13:41 UTC.
Position N 35°01' E 139°32'.

Length 76 m.

Type: Cargo ship. MMSI: 431000213.

Date/timePositionNaut miles runAvg speedWind from/ knotsBaromVisibWave heightAir tempDewpointWater temp
2017-Nov-19 13:34N 35°01' E 139°32'112.6
2017-Nov-19 13:29N 35°02' E 139°33'612.4
2017-Nov-19 13:00N 35°06' E 139°39'612.5
2017-Nov-19 12:30N 35°10' E 139°44'612.0
2017-Nov-19 12:00N 35°16' E 139°46'713.3
2017-Nov-19 11:31N 35°22' E 139°42'510.0
2017-Nov-19 11:00N 35°27' E 139°43'0 0.2
2017-Nov-19 10:29N 35°27' E 139°43'0 0.0
2017-Nov-19 09:59N 35°27' E 139°43'0 0.0
2017-Nov-19 09:23N 35°27' E 139°43'0 0.0
2017-Nov-19 08:53N 35°27' E 139°43'0 0.0
2017-Nov-19 08:29N 35°27' E 139°43'0 0.1
2017-Nov-19 07:59N 35°27' E 139°43'0 0.0
2017-Nov-19 07:29N 35°27' E 139°43'0 0.1
2017-Nov-19 06:59N 35°27' E 139°43'0 0.0
2017-Nov-19 06:26N 35°27' E 139°43'0 0.0
2017-Nov-19 05:59N 35°27' E 139°43'0 0.0
2017-Nov-19 05:26N 35°27' E 139°43'0 0.0
2017-Nov-19 04:59N 35°27' E 139°43'0 0.0
2017-Nov-19 04:29N 35°27' E 139°43'0 0.0
2017-Nov-19 03:59N 35°27' E 139°43'0 0.0
2017-Nov-19 03:29N 35°27' E 139°43'0 0.0
2017-Nov-19 02:59N 35°27' E 139°43'0 0.1
2017-Nov-19 02:29N 35°27' E 139°43'0 0.0
2017-Nov-19 01:59N 35°27' E 139°43'0 0.0
2017-Nov-19 01:29N 35°26' E 139°43'0 0.0
2017-Nov-19 00:59N 35°26' E 139°43'0 0.0
2017-Nov-19 00:29N 35°26' E 139°43'0 0.0
2017-Nov-18 23:59N 35°26' E 139°43'0 0.0
2017-Nov-18 23:29N 35°26' E 139°43'0 0.0
2017-Nov-18 22:59N 35°26' E 139°43'0 0.0
2017-Nov-18 22:17N 35°26' E 139°43'0 0.0
2017-Nov-18 21:56N 35°26' E 139°43'0 0.0
2017-Nov-18 21:26N 35°26' E 139°43'0 0.0
2017-Nov-18 20:53N 35°26' E 139°43'0 0.0
2017-Nov-18 20:29N 35°26' E 139°43'0 0.0
2017-Nov-18 19:59N 35°26' E 139°43'0 0.0
2017-Nov-18 19:29N 35°26' E 139°43'0 0.0
2017-Nov-18 18:59N 35°26' E 139°43'0 0.0
2017-Nov-18 18:29N 35°26' E 139°43'0 0.0
2017-Nov-18 17:59N 35°26' E 139°43'0 0.1
2017-Nov-18 17:26N 35°27' E 139°43'0 0.1
2017-Nov-18 16:59N 35°26' E 139°43'0 0.0
2017-Nov-18 16:29N 35°26' E 139°43'0 0.0
2017-Nov-18 15:56N 35°26' E 139°43'0 0.0
2017-Nov-18 15:26N 35°26' E 139°43'0 0.0
2017-Nov-18 14:59N 35°26' E 139°43'0 0.0
2017-Nov-18 14:26N 35°26' E 139°43'0 0.0
2017-Nov-18 13:53N 35°26' E 139°43'0 0.0
2017-Nov-18 13:29N 35°26' E 139°43'0 0.0
2017-Nov-18 11:56N 35°26' E 139°43'0 0.0
2017-Nov-18 10:41N 35°26' E 139°43'0 0.0
2017-Nov-18 10:23N 35°26' E 139°43'0 0.0
2017-Nov-18 09:23N 35°27' E 139°43'0 0.2
2017-Nov-18 08:58N 35°26' E 139°43'7 0.4
2017-Nov-17 14:08N 35°22' E 139°50'1 0.2
2017-Nov-17 09:32N 35°22' E 139°51'0 0.0
2017-Nov-17 08:36N 35°21' E 139°51'2 5.9
2017-Nov-17 08:17N 35°22' E 139°49'310.1
2017-Nov-17 07:58N 35°21' E 139°45'610.8
2017-Nov-17 07:24N 35°15' E 139°47'511.8
2017-Nov-17 07:00N 35°11' E 139°47'612.1
2017-Nov-17 06:30N 35°05' E 139°45'  
2017-Nov-12 19:31N 34°57' E 139°43'213.0
2017-Nov-12 19:21N 34°59' E 139°43'513.2
2017-Nov-12 19:00N 35°04' E 139°44'713.1
2017-Nov-12 18:30N 35°10' E 139°46'712.2
2017-Nov-12 17:58N 35°17' E 139°45'712.1
2017-Nov-12 17:25N 35°23' E 139°42'7 0.2
2017-Nov-11 08:07N 35°22' E 139°50'1 0.2
2017-Nov-11 04:38N 35°22' E 139°51'0 0.0
2017-Nov-11 04:26N 35°22' E 139°51'0 0.0
2017-Nov-10 20:02N 35°22' E 139°51'2 0.2
2017-Nov-10 10:56N 35°22' E 139°49'0 0.0
2017-Nov-10 09:44N 35°22' E 139°49'0 0.0
2017-Nov-10 09:17N 35°22' E 139°49'0 1.0
2017-Nov-10 09:00N 35°22' E 139°49'5 7.9
2017-Nov-10 08:21N 35°18' E 139°45'411.6
2017-Nov-10 07:59N 35°14' E 139°47'611.9
2017-Nov-10 07:30N 35°08' E 139°46'611.7
2017-Nov-10 07:00N 35°03' E 139°45'  
Track history (hours):
 
Tides and Currents Weather Stations Pressure Air Temp Water Temp Dewpoint Dewpoint Depression Visibility Wind Speed Wind Dir Waves Ship Positions

Toyotsu Maru

Last reported at 2017-Nov-19 13:34 UTC. Time now 2017-Nov-20 13:41 UTC.
Position N 35°01' E 139°32'.

Length 76 m.

Type: Cargo ship. MMSI: 431000213.

Date/timePositionNaut miles runAvg speedWind from/ knotsBaromVisibWave heightAir tempDewpointWater temp
2017-Nov-19 13:34N 35°01' E 139°32'112.6
2017-Nov-19 13:29N 35°02' E 139°33'612.4
2017-Nov-19 13:00N 35°06' E 139°39'612.5
2017-Nov-19 12:30N 35°10' E 139°44'612.0
2017-Nov-19 12:00N 35°16' E 139°46'713.3
2017-Nov-19 11:31N 35°22' E 139°42'510.0
2017-Nov-19 11:00N 35°27' E 139°43'0 0.2
2017-Nov-19 10:29N 35°27' E 139°43'0 0.0
2017-Nov-19 09:59N 35°27' E 139°43'0 0.0
2017-Nov-19 09:23N 35°27' E 139°43'0 0.0
2017-Nov-19 08:53N 35°27' E 139°43'0 0.0
2017-Nov-19 08:29N 35°27' E 139°43'0 0.1
2017-Nov-19 07:59N 35°27' E 139°43'0 0.0
2017-Nov-19 07:29N 35°27' E 139°43'0 0.1
2017-Nov-19 06:59N 35°27' E 139°43'0 0.0
2017-Nov-19 06:26N 35°27' E 139°43'0 0.0
2017-Nov-19 05:59N 35°27' E 139°43'0 0.0
2017-Nov-19 05:26N 35°27' E 139°43'0 0.0
2017-Nov-19 04:59N 35°27' E 139°43'0 0.0
2017-Nov-19 04:29N 35°27' E 139°43'0 0.0
2017-Nov-19 03:59N 35°27' E 139°43'0 0.0
2017-Nov-19 03:29N 35°27' E 139°43'0 0.0
2017-Nov-19 02:59N 35°27' E 139°43'0 0.1
2017-Nov-19 02:29N 35°27' E 139°43'0 0.0
2017-Nov-19 01:59N 35°27' E 139°43'0 0.0
2017-Nov-19 01:29N 35°26' E 139°43'0 0.0
2017-Nov-19 00:59N 35°26' E 139°43'0 0.0
2017-Nov-19 00:29N 35°26' E 139°43'0 0.0
2017-Nov-18 23:59N 35°26' E 139°43'0 0.0
2017-Nov-18 23:29N 35°26' E 139°43'0 0.0
2017-Nov-18 22:59N 35°26' E 139°43'0 0.0
2017-Nov-18 22:17N 35°26' E 139°43'0 0.0
2017-Nov-18 21:56N 35°26' E 139°43'0 0.0
2017-Nov-18 21:26N 35°26' E 139°43'0 0.0
2017-Nov-18 20:53N 35°26' E 139°43'0 0.0
2017-Nov-18 20:29N 35°26' E 139°43'0 0.0
2017-Nov-18 19:59N 35°26' E 139°43'0 0.0
2017-Nov-18 19:29N 35°26' E 139°43'0 0.0
2017-Nov-18 18:59N 35°26' E 139°43'0 0.0
2017-Nov-18 18:29N 35°26' E 139°43'0 0.0
2017-Nov-18 17:59N 35°26' E 139°43'0 0.1
2017-Nov-18 17:26N 35°27' E 139°43'0 0.1
2017-Nov-18 16:59N 35°26' E 139°43'0 0.0
2017-Nov-18 16:29N 35°26' E 139°43'0 0.0
2017-Nov-18 15:56N 35°26' E 139°43'0 0.0
2017-Nov-18 15:26N 35°26' E 139°43'0 0.0
2017-Nov-18 14:59N 35°26' E 139°43'0 0.0
2017-Nov-18 14:26N 35°26' E 139°43'0 0.0
2017-Nov-18 13:53N 35°26' E 139°43'0 0.0
2017-Nov-18 13:29N 35°26' E 139°43'0 0.0
2017-Nov-18 11:56N 35°26' E 139°43'0 0.0
2017-Nov-18 10:41N 35°26' E 139°43'0 0.0
2017-Nov-18 10:23N 35°26' E 139°43'0 0.0
2017-Nov-18 09:23N 35°27' E 139°43'0 0.2
2017-Nov-18 08:58N 35°26' E 139°43'7 0.4
2017-Nov-17 14:08N 35°22' E 139°50'1 0.2
2017-Nov-17 09:32N 35°22' E 139°51'0 0.0
2017-Nov-17 08:36N 35°21' E 139°51'2 5.9
2017-Nov-17 08:17N 35°22' E 139°49'310.1
2017-Nov-17 07:58N 35°21' E 139°45'610.8
2017-Nov-17 07:24N 35°15' E 139°47'511.8
2017-Nov-17 07:00N 35°11' E 139°47'612.1
2017-Nov-17 06:30N 35°05' E 139°45'  
2017-Nov-12 19:31N 34°57' E 139°43'213.0
2017-Nov-12 19:21N 34°59' E 139°43'513.2
2017-Nov-12 19:00N 35°04' E 139°44'713.1
2017-Nov-12 18:30N 35°10' E 139°46'712.2
2017-Nov-12 17:58N 35°17' E 139°45'712.1
2017-Nov-12 17:25N 35°23' E 139°42'7 0.2
2017-Nov-11 08:07N 35°22' E 139°50'1 0.2
2017-Nov-11 04:38N 35°22' E 139°51'0 0.0
2017-Nov-11 04:26N 35°22' E 139°51'0 0.0
2017-Nov-10 20:02N 35°22' E 139°51'2 0.2
2017-Nov-10 10:56N 35°22' E 139°49'0 0.0
2017-Nov-10 09:44N 35°22' E 139°49'0 0.0
2017-Nov-10 09:17N 35°22' E 139°49'0 1.0
2017-Nov-10 09:00N 35°22' E 139°49'5 7.9
2017-Nov-10 08:21N 35°18' E 139°45'411.6
2017-Nov-10 07:59N 35°14' E 139°47'611.9
2017-Nov-10 07:30N 35°08' E 139°46'611.7
2017-Nov-10 07:00N 35°03' E 139°45'  

Dump ship's entire track history